EDDT/TXL METAR and TAF weather

Enter ICAO airport designator
Station Type Date Time Source
EDDT METAR 2020/07/05 15:50 UTC NOAA

EDDT 051550Z 24011KT 220V280 CAVOK 26/15 Q1008 TEMPO 23020G30KT


Station Type Date Time Source
EDDT Decoded METAR 2020/07/05 15:50 UTC NOAA

Berlin-Tegel, Germany (EDDT) 52-34N 013-19E 37M
Jul 05, 2020 - 11:50 AM EDT / 2020.07.05 1550 UTC
Wind: from the WSW (240 degrees) at 13 MPH (11 KT) (direction variable):0
Visibility: greater than 7 mile(s):0
Temperature: 78 F (26 C)
Dew Point: 59 F (15 C)
Relative Humidity: 50%
Pressure (altimeter): 29.77 in. Hg (1008 hPa)
ob: EDDT 051550Z 24011KT 220V280 CAVOK 26/15 Q1008 TEMPO 23020G30KT
cycle: 16

Station Type Date Time Source
EDDT TAF 2020/07/05 12:27 UTC NOAA

TAF EDDT 051100Z 0512/0612 24015G25KT 9999 SCT030
TEMPO 0512/0516 25020G30KT
BECMG 0516/0518 26010KT

Example: see airport list